Time;durP1;ratioP1;P1;durP2;ratioP2;P2;SDS_P1;SDS_P2;PMS_P1;PMS_P2;Temp;Humidity;BMP_temperature;BMP_pressure;BME280_temperature;BME280_humidity;BME280_pressure;Samples;Min_cycle;Max_cycle;Signal;HPM_P1;HPM_P2
2024/02/17 00:00:15;;;;;;;13.30;4.30;;;25.60;52.40;;;;;;5054496;28;20058;-59
2024/02/17 00:02:45;;;;;;;41.47;20.65;;;25.40;52.80;;;;;;5053863;28;20096;-62
2024/02/17 00:05:11;;;;;;;9.90;4.18;;;25.30;52.60;;;;;;5054285;28;20066;-59
2024/02/17 00:07:38;;;;;;;13.38;3.22;;;25.50;52.80;;;;;;5067125;28;20067;-59
2024/02/17 00:10:06;;;;;;;10.80;4.10;;;25.50;53.00;;;;;;5074744;28;20413;-59
2024/02/17 00:12:33;;;;;;;7.03;3.75;;;25.30;52.70;;;;;;5077812;28;20065;-58
2024/02/17 00:14:59;;;;;;;12.57;7.15;;;25.20;53.20;;;;;;5074905;28;20073;-59
2024/02/17 00:17:26;;;;;;;20.45;3.70;;;25.30;53.20;;;;;;5074030;28;20883;-59
2024/02/17 00:19:53;;;;;;;14.50;2.92;;;25.30;53.50;;;;;;5060982;28;20108;-59
2024/02/17 00:22:20;;;;;;;13.90;2.80;;;25.40;53.40;;;;;;5051823;28;20141;-58
2024/02/17 00:24:46;;;;;;;10.25;3.13;;;25.30;53.00;;;;;;5068673;28;20073;-58
2024/02/17 00:27:13;;;;;;;8.07;3.25;;;25.20;53.00;;;;;;5065385;28;20070;-59
2024/02/17 00:29:39;;;;;;;11.40;3.35;;;25.20;53.70;;;;;;5076125;28;20079;-59
2024/02/17 00:32:06;;;;;;;10.25;3.25;;;25.00;53.10;;;;;;5064542;28;20066;-59
2024/02/17 00:34:33;;;;;;;7.90;2.75;;;25.00;54.10;;;;;;5054172;28;20097;-60
2024/02/17 00:36:59;;;;;;;9.13;2.28;;;25.10;53.80;;;;;;5074148;28;20065;-58
2024/02/17 00:39:26;;;;;;;12.38;2.50;;;24.80;53.60;;;;;;5052835;28;20525;-59
2024/02/17 00:41:53;;;;;;;7.70;2.30;;;24.80;53.80;;;;;;5071651;28;20163;-59
2024/02/17 00:44:19;;;;;;;26.58;12.93;;;25.00;54.30;;;;;;5062987;28;20127;-59
2024/02/17 00:46:46;;;;;;;14.60;2.67;;;25.50;53.50;;;;;;5063562;28;20065;-59
2024/02/17 00:49:13;;;;;;;8.57;2.40;;;25.60;52.30;;;;;;5051069;28;21480;-59
2024/02/17 00:51:39;;;;;;;12.27;2.75;;;24.90;53.30;;;;;;5057366;28;20588;-59
2024/02/17 00:54:08;;;;;;;12.00;2.60;;;24.40;54.00;;;;;;5073049;28;20584;-59
2024/02/17 00:56:34;;;;;;;6.55;2.15;;;24.20;55.40;;;;;;5049961;28;20123;-59
2024/02/17 00:59:01;;;;;;;10.27;1.80;;;24.00;54.90;;;;;;5070883;28;20081;-59
2024/02/17 01:01:28;;;;;;;7.78;1.55;;;23.90;55.20;;;;;;5073146;28;20128;-59
2024/02/17 01:03:55;;;;;;;24.85;9.50;;;23.70;55.40;;;;;;5064151;28;20109;-59
2024/02/17 01:06:23;;;;;;;16.27;2.33;;;23.70;55.50;;;;;;5053067;28;20090;-58
2024/02/17 01:08:50;;;;;;;12.07;1.73;;;23.60;56.00;;;;;;5053338;28;20072;-61
2024/02/17 01:11:18;;;;;;;13.85;2.65;;;23.40;55.80;;;;;;5068835;28;20083;-64
2024/02/17 01:13:45;;;;;;;21.77;2.70;;;23.30;56.00;;;;;;5072793;28;20077;-57
2024/02/17 01:16:12;;;;;;;12.10;2.88;;;23.20;56.90;;;;;;5071161;28;20107;-60
2024/02/17 01:18:39;;;;;;;13.13;2.85;;;23.20;57.10;;;;;;5068394;28;20134;-60
2024/02/17 01:21:06;;;;;;;19.08;2.78;;;23.10;56.50;;;;;;5071128;28;20100;-60
2024/02/17 01:23:32;;;;;;;16.55;2.58;;;23.00;56.90;;;;;;5058079;28;20076;-59
2024/02/17 01:26:00;;;;;;;41.85;19.25;;;22.90;56.90;;;;;;5052619;28;20123;-60
2024/02/17 01:28:26;;;;;;;33.67;11.98;;;22.80;57.30;;;;;;5053394;28;20070;-60
2024/02/17 01:30:54;;;;;;;15.40;5.90;;;22.60;57.80;;;;;;5035343;28;20420;-59
2024/02/17 01:33:20;;;;;;;20.38;5.22;;;22.50;58.50;;;;;;5051258;28;20065;-60
2024/02/17 01:35:47;;;;;;;23.42;4.10;;;22.30;58.90;;;;;;5070318;28;20104;-60
2024/02/17 01:38:14;;;;;;;22.13;4.00;;;22.20;59.10;;;;;;5072764;28;20076;-59
2024/02/17 01:40:42;;;;;;;18.67;3.38;;;22.00;59.70;;;;;;5072605;28;20104;-60
2024/02/17 01:43:10;;;;;;;18.33;3.42;;;21.90;60.60;;;;;;5072925;28;20397;-60
2024/02/17 01:45:38;;;;;;;24.35;4.28;;;21.80;60.50;;;;;;5071285;28;20524;-60
2024/02/17 01:48:07;;;;;;;21.20;4.20;;;21.70;60.00;;;;;;5056625;28;20440;-60
2024/02/17 01:50:36;;;;;;;22.25;6.82;;;21.60;60.50;;;;;;5056553;28;20061;-60
2024/02/17 01:53:05;;;;;;;26.75;5.88;;;21.40;61.10;;;;;;5072800;28;20097;-59
2024/02/17 01:55:33;;;;;;;24.17;4.53;;;21.30;61.40;;;;;;5070405;28;20073;-59
2024/02/17 01:58:00;;;;;;;18.30;4.68;;;21.20;60.60;;;;;;5072697;28;20524;-59
2024/02/17 02:00:28;;;;;;;21.23;4.38;;;21.00;61.00;;;;;;5070204;28;20531;-61
2024/02/17 02:02:55;;;;;;;29.40;5.65;;;20.90;61.00;;;;;;5072607;28;20087;-59
2024/02/17 02:05:22;;;;;;;27.25;5.50;;;20.80;61.20;;;;;;5072394;28;20511;-59
2024/02/17 02:07:49;;;;;;;24.75;5.38;;;20.80;61.40;;;;;;5072101;28;20069;-59
2024/02/17 02:10:16;;;;;;;35.92;5.38;;;20.70;62.20;;;;;;5072766;28;21118;-60
2024/02/17 02:12:44;;;;;;;38.60;5.47;;;20.70;63.40;;;;;;5085629;28;20065;-58
2024/02/17 02:15:12;;;;;;;38.42;6.10;;;20.60;63.10;;;;;;5067905;28;20073;-59
2024/02/17 02:17:40;;;;;;;34.85;7.10;;;20.60;63.40;;;;;;5069599;28;20466;-59
2024/02/17 02:20:11;;;;;;;46.83;7.43;;;20.50;63.40;;;;;;5065345;28;20076;-59
2024/02/17 02:22:38;;;;;;;32.17;7.43;;;20.50;64.30;;;;;;5048015;28;20081;-60
2024/02/17 02:25:07;;;;;;;37.92;8.18;;;20.30;63.90;;;;;;5055802;28;20073;-59
2024/02/17 02:27:40;;;;;;;28.67;7.00;;;20.30;64.40;;;;;;5071463;28;20433;-60
2024/02/17 02:30:08;;;;;;;50.22;8.95;;;20.20;64.80;;;;;;5066788;28;20088;-60
2024/02/17 02:32:36;;;;;;;41.78;7.28;;;20.10;65.60;;;;;;5049925;28;20513;-60
2024/02/17 02:35:02;;;;;;;35.17;8.05;;;20.10;65.80;;;;;;5049583;28;20073;-59
2024/02/17 02:37:30;;;;;;;65.82;22.70;;;20.10;66.40;;;;;;5051913;28;20100;-59
2024/02/17 02:39:56;;;;;;;40.90;7.50;;;20.00;66.50;;;;;;5062312;28;20069;-61
2024/02/17 02:42:23;;;;;;;52.97;10.75;;;19.90;67.30;;;;;;5091763;28;20479;-59
2024/02/17 02:44:49;;;;;;;55.08;9.00;;;19.70;67.80;;;;;;5092278;28;20065;-60
2024/02/17 02:47:17;;;;;;;36.72;8.70;;;19.60;68.30;;;;;;5069503;28;20080;-61
2024/02/17 02:49:44;;;;;;;45.90;9.35;;;19.50;69.20;;;;;;5059426;28;20478;-60
2024/02/17 02:52:12;;;;;;;51.22;10.13;;;19.50;69.80;;;;;;5050329;28;20091;-61
2024/02/17 02:54:39;;;;;;;48.58;10.32;;;19.40;69.90;;;;;;5053457;28;20286;-61
2024/02/17 02:57:06;;;;;;;72.05;10.13;;;19.40;70.50;;;;;;5070353;28;20060;-60
2024/02/17 02:59:32;;;;;;;55.60;9.38;;;19.20;70.80;;;;;;5070359;28;20061;-60
2024/02/17 03:01:59;;;;;;;51.95;9.98;;;19.20;70.90;;;;;;5071427;28;20097;-60
2024/02/17 03:04:32;;;;;;;60.10;9.65;;;19.10;71.20;;;;;;5072281;28;20087;-59
2024/02/17 03:06:58;;;;;;;45.13;9.23;;;19.10;71.60;;;;;;5049875;28;20155;-60
2024/02/17 03:09:25;;;;;;;47.70;8.85;;;19.00;71.60;;;;;;5052275;28;20133;-59
2024/02/17 03:11:51;;;;;;;56.97;10.68;;;19.00;72.70;;;;;;5052508;28;20057;-59
2024/02/17 03:14:18;;;;;;;61.03;8.93;;;18.90;72.90;;;;;;5051427;28;20536;-59
2024/02/17 03:16:45;;;;;;;55.55;9.75;;;18.90;72.90;;;;;;5049005;28;20074;-61
2024/02/17 03:19:12;;;;;;;61.65;10.95;;;18.80;72.80;;;;;;5061570;28;20069;-59
2024/02/17 03:21:42;;;;;;;58.63;10.45;;;18.70;73.00;;;;;;5071408;28;20105;-60
2024/02/17 03:24:10;;;;;;;65.60;11.07;;;18.70;73.50;;;;;;5071638;28;20512;-60
2024/02/17 03:26:36;;;;;;;46.95;9.48;;;18.60;73.90;;;;;;5070656;28;20539;-59
2024/02/17 03:29:04;;;;;;;49.17;10.15;;;18.60;74.30;;;;;;5071111;28;20104;-59
2024/02/17 03:31:30;;;;;;;58.72;10.13;;;18.60;75.00;;;;;;5069383;28;20117;-59
2024/02/17 03:33:59;;;;;;;65.47;10.23;;;18.50;74.70;;;;;;5051655;28;20084;-60
2024/02/17 03:36:25;;;;;;;61.13;10.52;;;18.40;75.10;;;;;;5059842;28;20081;-59
2024/02/17 03:38:52;;;;;;;65.63;11.77;;;18.30;75.90;;;;;;5055235;28;20231;-60
2024/02/17 03:41:18;;;;;;;58.55;10.45;;;18.40;76.60;;;;;;5054856;28;20101;-60
2024/02/17 03:43:45;;;;;;;49.85;10.02;;;18.30;76.40;;;;;;5053952;28;20065;-60
2024/02/17 03:46:11;;;;;;;42.83;9.63;;;18.20;76.30;;;;;;5063510;28;20156;-61
2024/02/17 03:48:38;;;;;;;56.20;10.10;;;18.20;76.60;;;;;;5071460;28;20079;-60
2024/02/17 03:51:05;;;;;;;62.13;12.32;;;18.10;76.60;;;;;;5074712;28;20077;-61
2024/02/17 03:53:32;;;;;;;53.88;12.00;;;18.10;76.90;;;;;;5074589;28;20129;-60
2024/02/17 03:55:58;;;;;;;73.65;12.27;;;18.00;77.00;;;;;;5074615;28;20072;-60
2024/02/17 03:58:25;;;;;;;62.10;12.75;;;18.00;77.00;;;;;;5074714;28;20069;-60
2024/02/17 04:00:51;;;;;;;61.10;13.25;;;18.00;76.90;;;;;;5074407;28;21179;-60
2024/02/17 04:03:18;;;;;;;71.72;14.02;;;18.00;77.10;;;;;;5062506;28;20088;-60
2024/02/17 04:05:44;;;;;;;63.85;13.25;;;18.00;77.00;;;;;;5074538;28;20115;-60
2024/02/17 04:08:11;;;;;;;72.43;12.38;;;18.00;76.90;;;;;;5074117;28;20077;-60
2024/02/17 04:10:38;;;;;;;94.97;19.45;;;18.00;77.20;;;;;;5065248;28;20076;-60
2024/02/17 04:13:05;;;;;;;117.25;23.55;;;18.00;76.00;;;;;;5055933;28;20073;-61
2024/02/17 04:15:31;;;;;;;74.68;20.42;;;18.10;75.30;;;;;;5070860;28;20100;-60
2024/02/17 04:18:00;;;;;;;105.10;26.20;;;18.00;76.50;;;;;;5074501;28;20061;-60
2024/02/17 04:20:26;;;;;;;80.80;23.88;;;18.00;76.80;;;;;;5074359;28;20072;-60
2024/02/17 04:22:53;;;;;;;117.28;24.95;;;18.00;76.80;;;;;;5071142;28;20077;-60
2024/02/17 04:25:19;;;;;;;105.97;26.00;;;17.90;77.60;;;;;;5064017;28;20110;-59
2024/02/17 04:27:46;;;;;;;101.30;26.13;;;17.80;77.60;;;;;;5089641;28;20141;-60
2024/02/17 04:30:12;;;;;;;124.35;27.42;;;17.70;78.20;;;;;;5073221;28;20073;-60
2024/02/17 04:32:39;;;;;;;107.90;25.80;;;17.60;78.80;;;;;;5069276;28;20425;-60
2024/02/17 04:35:06;;;;;;;123.13;27.75;;;17.50;78.50;;;;;;5063235;28;20073;-60
2024/02/17 04:37:32;;;;;;;121.95;27.35;;;17.50;79.00;;;;;;5055635;28;20073;-59
2024/02/17 04:39:59;;;;;;;115.35;30.95;;;17.50;79.90;;;;;;5053755;28;20473;-60
2024/02/17 04:42:26;;;;;;;120.10;30.02;;;17.40;79.70;;;;;;5054627;28;20100;-60
2024/02/17 04:44:53;;;;;;;99.68;28.42;;;17.40;80.20;;;;;;5061780;28;20119;-60
2024/02/17 04:47:19;;;;;;;118.03;30.42;;;17.40;80.00;;;;;;5053109;28;20074;-59
2024/02/17 04:49:46;;;;;;;102.57;28.83;;;17.30;80.50;;;;;;5069222;28;20084;-60
2024/02/17 04:52:12;;;;;;;120.28;32.78;;;17.30;80.80;;;;;;5055823;28;20081;-60
2024/02/17 04:54:40;;;;;;;147.50;39.78;;;17.20;80.40;;;;;;5049171;28;20159;-59
2024/02/17 04:57:06;;;;;;;104.68;39.00;;;17.30;81.20;;;;;;5057514;28;20156;-59
2024/02/17 04:59:32;;;;;;;122.03;35.65;;;17.20;81.40;;;;;;5053462;28;20070;-59
2024/02/17 05:01:59;;;;;;;93.65;35.00;;;17.20;81.80;;;;;;5061474;28;20099;-61
2024/02/17 05:04:26;;;;;;;103.88;32.78;;;17.20;81.10;;;;;;5071537;28;20539;-60
2024/02/17 05:06:52;;;;;;;106.13;32.72;;;17.10;81.00;;;;;;5073472;28;20073;-60
2024/02/17 05:09:19;;;;;;;112.03;34.60;;;17.10;81.50;;;;;;5046945;28;20073;-59
2024/02/17 05:11:45;;;;;;;106.70;26.00;;;17.10;81.90;;;;;;5066895;28;20079;-59
2024/02/17 05:14:15;;;;;;;95.30;23.55;;;17.10;81.80;;;;;;5067613;28;20088;-59
2024/02/17 05:16:44;;;;;;;110.22;28.20;;;17.10;81.80;;;;;;5061577;28;21600;-59
2024/02/17 05:19:15;;;;;;;100.43;30.13;;;17.10;81.90;;;;;;5057197;28;20073;-60
2024/02/17 05:21:44;;;;;;;123.22;32.05;;;17.10;82.00;;;;;;5059789;28;20105;-60
2024/02/17 05:24:11;;;;;;;126.40;31.08;;;17.10;81.80;;;;;;5071905;28;20073;-60
2024/02/17 05:26:39;;;;;;;128.52;29.90;;;17.00;82.00;;;;;;5070049;28;20517;-60
2024/02/17 05:29:06;;;;;;;134.15;29.08;;;17.00;81.80;;;;;;5072518;28;20164;-60
2024/02/17 05:31:35;;;;;;;126.45;25.50;;;17.00;81.70;;;;;;5073169;28;20150;-60
2024/02/17 05:34:05;;;;;;;103.35;23.75;;;17.00;81.80;;;;;;5071310;28;20080;-60
2024/02/17 05:36:31;;;;;;;132.25;26.75;;;17.00;81.50;;;;;;5050236;28;20160;-60
2024/02/17 05:38:58;;;;;;;97.70;23.85;;;16.90;81.20;;;;;;5071043;28;20122;-60
2024/02/17 05:41:25;;;;;;;109.18;23.85;;;16.90;81.00;;;;;;5070991;28;20162;-61
2024/02/17 05:43:52;;;;;;;102.28;24.65;;;16.90;80.70;;;;;;5068007;28;20070;-60
2024/02/17 05:46:19;;;;;;;122.40;24.85;;;16.90;80.90;;;;;;5051789;28;20072;-61
2024/02/17 05:48:46;;;;;;;119.63;25.73;;;16.80;82.10;;;;;;5057993;28;20096;-61
2024/02/17 05:51:12;;;;;;;116.40;24.95;;;16.80;82.90;;;;;;5066447;28;20427;-60
2024/02/17 05:53:39;;;;;;;95.70;23.52;;;16.70;83.30;;;;;;5052020;28;20105;-60
2024/02/17 05:56:07;;;;;;;106.88;25.05;;;16.70;82.20;;;;;;5065186;28;20073;-60
2024/02/17 05:58:35;;;;;;;85.18;23.75;;;16.70;81.60;;;;;;5049486;28;20069;-60
2024/02/17 06:01:02;;;;;;;113.53;26.30;;;16.70;83.40;;;;;;5072560;28;20101;-61
2024/02/17 06:03:29;;;;;;;133.75;27.15;;;16.70;82.30;;;;;;5066452;28;20509;-61
2024/02/17 06:05:55;;;;;;;88.15;24.45;;;16.60;82.90;;;;;;5052998;28;20074;-60
2024/02/17 06:08:22;;;;;;;89.55;24.60;;;16.60;82.70;;;;;;5069518;28;20065;-61
2024/02/17 06:10:49;;;;;;;82.90;24.10;;;16.60;83.10;;;;;;5063067;28;20091;-60
2024/02/17 06:13:15;;;;;;;119.95;25.17;;;16.60;82.40;;;;;;5061234;28;20477;-60
2024/02/17 06:15:43;;;;;;;120.45;24.90;;;16.60;83.10;;;;;;5058872;28;20089;-60
2024/02/17 06:21:10;;;;;;;105.93;23.40;;;16.50;82.30;;;;;;5059490;28;20464;-61
2024/02/17 06:23:38;;;;;;;117.07;23.48;;;16.40;82.70;;;;;;5059026;28;20077;-60
2024/02/17 06:26:05;;;;;;;100.97;21.85;;;16.40;82.60;;;;;;5059862;28;20077;-60
2024/02/17 06:28:32;;;;;;;110.47;21.30;;;16.30;83.10;;;;;;5048314;28;20069;-60
2024/02/17 06:30:58;;;;;;;86.80;23.23;;;16.30;83.20;;;;;;5056227;28;20076;-60
2024/02/17 06:33:27;;;;;;;97.40;22.35;;;16.30;83.20;;;;;;5054806;28;20080;-60
2024/02/17 06:35:53;;;;;;;85.55;21.00;;;16.20;83.60;;;;;;5056967;28;20080;-60
2024/02/17 06:38:20;;;;;;;90.63;20.92;;;16.20;84.10;;;;;;5057706;28;20081;-60
2024/02/17 06:40:46;;;;;;;78.60;19.63;;;16.20;84.50;;;;;;5060449;28;20566;-60
2024/02/17 06:43:17;;;;;;;72.20;18.25;;;16.10;84.10;;;;;;5056055;28;20467;-60
2024/02/17 06:45:44;;;;;;;70.07;18.92;;;16.00;83.70;;;;;;5051106;28;20097;-60
2024/02/17 06:48:11;;;;;;;87.72;27.40;;;16.00;84.60;;;;;;5061131;28;20074;-60
2024/02/17 06:50:37;;;;;;;71.35;20.45;;;16.00;84.70;;;;;;5058966;28;20097;-63
2024/02/17 06:53:04;;;;;;;114.70;44.40;;;16.00;84.70;;;;;;5062401;28;20159;-60
2024/02/17 06:55:31;;;;;;;148.48;61.47;;;17.30;83.10;;;;;;5054426;28;20444;-60
2024/02/17 06:57:57;;;;;;;93.28;38.08;;;17.90;79.10;;;;;;5054629;28;20080;-59
2024/02/17 07:00:24;;;;;;;113.32;51.38;;;17.70;77.80;;;;;;5051955;28;20127;-59
2024/02/17 07:02:51;;;;;;;69.35;19.15;;;17.60;78.10;;;;;;5047469;28;20070;-59
2024/02/17 07:05:17;;;;;;;79.30;24.08;;;18.20;78.80;;;;;;5048689;28;20063;-60
2024/02/17 07:07:44;;;;;;;72.65;18.75;;;18.70;76.90;;;;;;5056785;28;20533;-60
2024/02/17 07:10:10;;;;;;;78.90;17.83;;;19.10;76.10;;;;;;5054555;28;20130;-60
2024/02/17 07:12:37;;;;;;;89.28;22.02;;;18.90;74.70;;;;;;5074526;28;20083;-61
2024/02/17 07:15:04;;;;;;;72.97;17.42;;;18.80;75.50;;;;;;5065935;28;20203;-60
2024/02/17 07:17:31;;;;;;;91.10;19.02;;;18.60;77.00;;;;;;5059618;28;20073;-60
2024/02/17 07:19:57;;;;;;;78.50;18.02;;;18.80;76.90;;;;;;5061055;28;20070;-60
2024/02/17 07:22:23;;;;;;;77.80;17.17;;;18.80;76.50;;;;;;5060286;28;20172;-59
2024/02/17 07:24:51;;;;;;;87.53;19.85;;;18.60;76.60;;;;;;5057292;28;20097;-59
2024/02/17 07:27:17;;;;;;;92.57;33.85;;;18.40;77.20;;;;;;5061033;28;20077;-59
2024/02/17 07:29:44;;;;;;;99.53;21.17;;;18.40;76.90;;;;;;5064850;28;20073;-60
2024/02/17 07:32:10;;;;;;;115.35;34.58;;;18.20;77.50;;;;;;5067487;28;20084;-59
2024/02/17 07:34:41;;;;;;;102.88;35.80;;;18.20;78.60;;;;;;5055399;28;20061;-60
2024/02/17 07:37:08;;;;;;;90.97;29.25;;;18.10;78.90;;;;;;5052890;28;20077;-59
2024/02/17 07:39:37;;;;;;;77.97;20.05;;;18.00;79.50;;;;;;5056702;28;20065;-60
2024/02/17 07:42:06;;;;;;;85.88;19.10;;;18.00;80.50;;;;;;5056193;28;20098;-59
2024/02/17 07:44:35;;;;;;;91.35;19.40;;;18.00;79.30;;;;;;5054373;28;20080;-59
2024/02/17 07:47:05;;;;;;;93.95;19.95;;;17.80;79.90;;;;;;5061042;28;20088;-60
2024/02/17 07:49:32;;;;;;;99.15;21.60;;;17.80;82.20;;;;;;5061410;28;20081;-61
2024/02/17 07:51:59;;;;;;;100.50;21.67;;;17.70;82.30;;;;;;5049521;28;20073;-59
2024/02/17 07:54:25;;;;;;;85.38;21.02;;;17.80;81.60;;;;;;5047026;28;20570;-60
2024/02/17 07:56:52;;;;;;;88.70;19.92;;;17.70;82.10;;;;;;5061719;28;20080;-60
2024/02/17 07:59:18;;;;;;;82.43;20.23;;;17.60;83.40;;;;;;5054884;28;20077;-59
2024/02/17 08:01:45;;;;;;;102.85;39.22;;;17.50;83.30;;;;;;5054063;28;20108;-60
2024/02/17 08:04:11;;;;;;;102.43;38.83;;;17.30;83.10;;;;;;5063707;28;20065;-61
2024/02/17 08:06:38;;;;;;;120.18;46.53;;;17.20;83.40;;;;;;5063326;28;20160;-60
2024/02/17 08:09:06;;;;;;;117.40;37.42;;;17.10;84.00;;;;;;5061407;28;20123;-60
2024/02/17 08:11:36;;;;;;;100.60;26.13;;;17.00;85.30;;;;;;5064437;28;20091;-60
2024/02/17 08:14:06;;;;;;;99.85;25.20;;;17.00;85.20;;;;;;5057457;28;20165;-59
2024/02/17 08:16:32;;;;;;;95.55;24.20;;;17.00;85.30;;;;;;5058874;28;20521;-59
2024/02/17 08:18:59;;;;;;;109.30;25.50;;;16.90;86.00;;;;;;5056932;28;20354;-59
2024/02/17 08:21:25;;;;;;;105.88;25.15;;;16.80;86.60;;;;;;5059284;28;20622;-59
2024/02/17 08:23:52;;;;;;;88.50;23.35;;;16.80;87.00;;;;;;5061033;28;20077;-59
2024/02/17 08:26:19;;;;;;;125.07;38.72;;;16.80;86.50;;;;;;5063053;28;20076;-60
2024/02/17 08:28:47;;;;;;;110.75;24.70;;;16.60;87.20;;;;;;5064962;28;20073;-59
2024/02/17 08:31:13;;;;;;;133.77;26.88;;;16.60;87.60;;;;;;5062696;28;20113;-60
2024/02/17 08:33:40;;;;;;;89.28;25.65;;;16.70;87.20;;;;;;5063313;28;20073;-61
2024/02/17 08:36:06;;;;;;;126.70;39.50;;;16.60;87.10;;;;;;5063806;28;20097;-59
2024/02/17 08:38:33;;;;;;;89.45;26.48;;;16.50;87.90;;;;;;5061866;28;20101;-60
2024/02/17 08:41:02;;;;;;;104.80;28.60;;;16.40;88.40;;;;;;5064667;28;20681;-58
2024/02/17 08:43:28;;;;;;;101.15;27.17;;;16.40;88.40;;;;;;5066442;28;20080;-60
2024/02/17 08:45:56;;;;;;;105.25;25.42;;;16.30;88.90;;;;;;5063184;28;20073;-60
2024/02/17 08:48:23;;;;;;;110.32;25.83;;;16.40;89.10;;;;;;5062734;28;20521;-59
2024/02/17 08:50:49;;;;;;;89.07;25.63;;;16.20;87.70;;;;;;5062420;28;20146;-60
2024/02/17 08:53:16;;;;;;;101.80;24.85;;;15.90;88.20;;;;;;5061343;28;20108;-59
2024/02/17 08:55:44;;;;;;;85.60;24.95;;;15.80;90.60;;;;;;5062296;28;20088;-60
2024/02/17 08:58:10;;;;;;;90.63;26.08;;;15.80;90.80;;;;;;5060657;28;20164;-59
2024/02/17 09:00:38;;;;;;;82.90;25.15;;;15.80;90.90;;;;;;5058628;28;20069;-60
2024/02/17 09:03:05;;;;;;;80.13;25.52;;;15.80;90.90;;;;;;5060717;28;20161;-60
2024/02/17 09:05:31;;;;;;;80.53;22.98;;;15.80;90.90;;;;;;5062520;28;20078;-60
2024/02/17 09:07:58;;;;;;;100.93;24.98;;;15.60;91.40;;;;;;5065422;28;20108;-60
2024/02/17 09:10:24;;;;;;;97.78;23.48;;;15.60;91.70;;;;;;5071222;28;20435;-60
2024/02/17 09:12:51;;;;;;;113.63;25.88;;;15.60;91.10;;;;;;5061918;28;20464;-59
2024/02/17 09:15:17;;;;;;;75.28;24.27;;;15.50;91.40;;;;;;5062532;28;20069;-59
2024/02/17 09:17:44;;;;;;;91.82;25.63;;;15.50;91.10;;;;;;5066540;28;20494;-60
2024/02/17 09:20:11;;;;;;;88.80;24.15;;;15.50;91.80;;;;;;5060497;28;20459;-60
2024/02/17 09:22:37;;;;;;;89.45;24.60;;;15.40;91.80;;;;;;5061839;28;20147;-59
2024/02/17 09:25:04;;;;;;;94.60;23.73;;;15.40;91.80;;;;;;5063703;28;20079;-59
2024/02/17 09:27:31;;;;;;;102.53;40.05;;;15.30;91.90;;;;;;5066560;28;20089;-60
2024/02/17 09:29:57;;;;;;;122.97;40.05;;;15.30;91.80;;;;;;5058396;28;20495;-59
2024/02/17 09:32:24;;;;;;;87.80;24.88;;;15.20;91.80;;;;;;5064081;28;20463;-59
2024/02/17 09:34:50;;;;;;;85.07;25.08;;;15.20;92.30;;;;;;5060414;28;20517;-59
2024/02/17 09:37:17;;;;;;;74.70;26.17;;;15.20;92.10;;;;;;5059178;28;20512;-59
2024/02/17 09:39:44;;;;;;;88.22;26.38;;;15.00;91.80;;;;;;5067223;28;20466;-59
2024/02/17 09:42:10;;;;;;;95.28;27.30;;;14.90;92.70;;;;;;5065030;28;20126;-60
2024/02/17 09:44:40;;;;;;;94.43;28.27;;;15.00;92.90;;;;;;5052183;28;20129;-59
2024/02/17 09:47:07;;;;;;;83.03;26.02;;;15.00;92.70;;;;;;5054214;28;20066;-59
2024/02/17 09:49:38;;;;;;;93.45;27.88;;;14.90;92.50;;;;;;5067032;28;20161;-60
2024/02/17 09:52:06;;;;;;;92.40;27.50;;;14.70;92.70;;;;;;5064345;28;20062;-60
2024/02/17 09:54:33;;;;;;;89.22;28.48;;;14.80;93.40;;;;;;5054924;28;20115;-59
2024/02/17 09:57:00;;;;;;;92.03;27.27;;;14.90;93.90;;;;;;5063618;28;20113;-60
2024/02/17 09:59:27;;;;;;;93.47;27.83;;;14.80;93.40;;;;;;5049394;28;20070;-59
2024/02/17 10:01:53;;;;;;;86.90;27.65;;;14.70;93.50;;;;;;5062359;28;20591;-59
2024/02/17 10:04:20;;;;;;;90.57;28.85;;;14.70;94.10;;;;;;5062173;28;20123;-60
2024/02/17 10:06:59;;;;;;;99.22;29.17;;;14.70;94.40;;;;;;5052243;28;20579;-60
2024/02/17 10:09:27;;;;;;;95.32;31.10;;;14.60;94.80;;;;;;5063631;28;20069;-60
2024/02/17 10:11:54;;;;;;;115.72;34.60;;;14.50;94.50;;;;;;5065794;28;20146;-59
2024/02/17 10:14:27;;;;;;;137.35;38.15;;;14.40;94.60;;;;;;5060667;28;20073;-60
2024/02/17 10:17:02;;;;;;;144.07;37.67;;;14.40;94.90;;;;;;5061619;28;20069;-60
2024/02/17 10:19:32;;;;;;;103.85;33.40;;;14.40;95.60;;;;;;5062190;28;20064;-60
2024/02/17 10:21:59;;;;;;;107.60;33.15;;;14.40;95.40;;;;;;5059670;28;20128;-59
2024/02/17 10:24:26;;;;;;;120.00;35.38;;;14.40;95.30;;;;;;5062211;28;20069;-60
2024/02/17 10:26:55;;;;;;;105.88;35.15;;;14.40;95.50;;;;;;5064119;28;20065;-60
2024/02/17 10:29:24;;;;;;;124.70;36.65;;;14.50;95.50;;;;;;5057307;28;20088;-59
2024/02/17 10:31:50;;;;;;;118.63;36.85;;;14.30;95.30;;;;;;5061974;28;20076;-59
2024/02/17 10:34:17;;;;;;;106.40;36.13;;;14.20;95.80;;;;;;5069735;28;20081;-59
2024/02/17 10:36:44;;;;;;;118.57;36.67;;;14.20;96.30;;;;;;5063941;28;20401;-59
2024/02/17 10:39:13;;;;;;;125.25;36.75;;;14.30;96.60;;;;;;5058452;28;20068;-59
2024/02/17 10:41:40;;;;;;;123.38;36.25;;;14.20;96.80;;;;;;5063396;28;20132;-59
2024/02/17 10:44:07;;;;;;;128.75;34.78;;;14.20;96.80;;;;;;5055024;28;20073;-59
2024/02/17 10:46:37;;;;;;;111.75;35.55;;;14.20;96.60;;;;;;5057281;28;20092;-59
2024/02/17 10:49:18;;;;;;;139.82;36.83;;;14.10;96.90;;;;;;5061587;28;20127;-60
2024/02/17 10:52:03;;;;;;;113.35;34.75;;;14.20;96.70;;;;;;5053158;28;20097;-60
2024/02/17 10:54:50;;;;;;;117.90;37.08;;;14.20;96.90;;;;;;5067120;28;20151;-60
2024/02/17 10:57:20;;;;;;;101.88;35.10;;;14.20;97.00;;;;;;5061841;28;20155;-59
2024/02/17 10:59:51;;;;;;;132.23;36.72;;;14.10;96.90;;;;;;5060781;28;20068;-59
2024/02/17 11:02:21;;;;;;;129.68;36.10;;;14.00;97.20;;;;;;5065502;28;20130;-60
2024/02/17 11:04:48;;;;;;;133.77;36.97;;;13.90;97.40;;;;;;5058662;28;20066;-60
2024/02/17 11:07:16;;;;;;;115.72;34.88;;;13.80;97.50;;;;;;5066487;28;21208;-60
2024/02/17 11:09:45;;;;;;;121.15;37.03;;;14.00;97.40;;;;;;5056297;28;20153;-60
2024/02/17 11:12:33;;;;;;;99.55;34.28;;;14.00;97.40;;;;;;5057937;28;20070;-59
2024/02/17 11:15:11;;;;;;;117.82;33.97;;;13.90;97.50;;;;;;5061143;28;20080;-60
2024/02/17 11:18:01;;;;;;;102.18;33.90;;;13.90;97.80;;;;;;5057138;28;20087;-59
2024/02/17 11:20:28;;;;;;;110.60;34.58;;;13.90;97.60;;;;;;5051918;28;20100;-59
2024/02/17 11:22:58;;;;;;;106.32;32.22;;;13.90;97.60;;;;;;5067348;28;20196;-59
2024/02/17 11:25:41;;;;;;;84.32;29.58;;;13.90;97.80;;;;;;5060445;28;20072;-58
2024/02/17 11:28:30;;;;;;;79.68;25.13;;;13.90;97.80;;;;;;5048844;28;20207;-60
2024/02/17 11:31:00;;;;;;;70.35;21.98;;;13.80;97.20;;;;;;5072832;28;20118;-58
2024/02/17 11:33:31;;;;;;;55.80;20.75;;;13.70;97.10;;;;;;5059749;28;20071;-59
2024/02/17 11:36:07;;;;;;;64.82;20.10;;;13.60;97.10;;;;;;5056508;28;20409;-59
2024/02/17 11:38:35;;;;;;;62.72;19.23;;;13.80;97.10;;;;;;5054071;28;20597;-59
2024/02/17 11:41:02;;;;;;;60.05;17.48;;;13.90;97.30;;;;;;5060175;28;20108;-59
2024/02/17 11:43:32;;;;;;;54.83;16.60;;;13.90;96.70;;;;;;5060977;28;20443;-59
2024/02/17 11:45:59;;;;;;;53.78;18.77;;;13.80;96.60;;;;;;5059167;28;20073;-59
2024/02/17 11:48:27;;;;;;;62.42;18.02;;;13.90;96.60;;;;;;5060914;28;20076;-59
2024/02/17 11:51:07;;;;;;;60.42;17.48;;;13.90;96.50;;;;;;5055009;28;20070;-59
2024/02/17 11:53:34;;;;;;;54.47;15.55;;;13.80;96.50;;;;;;5053304;28;20610;-58
2024/02/17 11:56:01;;;;;;;64.07;14.65;;;13.60;96.50;;;;;;5061379;28;20075;-59
2024/02/17 11:58:30;;;;;;;55.95;13.35;;;13.50;96.80;;;;;;5065627;28;20470;-59
2024/02/17 12:00:57;;;;;;;54.85;13.15;;;13.70;96.50;;;;;;5069571;28;20129;-59
2024/02/17 12:03:27;;;;;;;57.38;13.27;;;13.80;96.20;;;;;;5057786;28;20070;-59
2024/02/17 12:05:56;;;;;;;35.75;10.45;;;13.80;96.30;;;;;;5067087;28;20080;-59
2024/02/17 12:08:24;;;;;;;41.97;9.85;;;13.70;95.90;;;;;;5065147;28;20172;-59
2024/02/17 12:10:51;;;;;;;19.52;7.20;;;13.60;96.00;;;;;;5064891;28;20475;-59
2024/02/17 12:13:17;;;;;;;27.30;6.72;;;13.60;95.90;;;;;;5065612;28;20119;-59
2024/02/17 12:15:44;;;;;;;31.23;7.68;;;13.60;95.70;;;;;;5064286;28;20130;-59
2024/02/17 12:18:12;;;;;;;19.05;6.47;;;13.50;96.30;;;;;;5058777;28;20089;-59
2024/02/17 12:20:39;;;;;;;24.65;6.45;;;13.50;96.70;;;;;;5062012;28;20073;-58
2024/02/17 12:23:09;;;;;;;22.30;6.72;;;13.60;96.90;;;;;;5059632;28;20069;-58
2024/02/17 12:25:37;;;;;;;17.02;6.65;;;13.60;96.80;;;;;;5071040;28;20077;-59
2024/02/17 12:28:07;;;;;;;20.52;6.32;;;13.50;96.60;;;;;;5067672;28;20077;-59
2024/02/17 12:30:47;;;;;;;18.35;5.88;;;13.40;96.50;;;;;;5068904;28;20586;-59